sensor_id;sensor_type;location;lat;lon;timestamp;pressure;altitude;pressure_sealevel;temperature;humidity
2339;BME280;1180;51.438;6.978;2023-04-28T00:01:45;100057.09;;;13.80;50.95
2339;BME280;1180;51.438;6.978;2023-04-28T00:04:10;100051.94;;;13.80;50.69
2339;BME280;1180;51.438;6.978;2023-04-28T00:06:36;100051.38;;;13.76;51.70
2339;BME280;1180;51.438;6.978;2023-04-28T00:09:01;100045.38;;;13.76;52.50
2339;BME280;1180;51.438;6.978;2023-04-28T00:11:27;100044.06;;;13.70;54.44
2339;BME280;1180;51.438;6.978;2023-04-28T00:13:53;100036.81;;;13.75;56.22
2339;BME280;1180;51.438;6.978;2023-04-28T00:16:18;100038.34;;;13.66;56.32
2339;BME280;1180;51.438;6.978;2023-04-28T00:18:44;100025.47;;;13.66;58.27
2339;BME280;1180;51.438;6.978;2023-04-28T00:21:09;100020.88;;;13.58;60.13
2339;BME280;1180;51.438;6.978;2023-04-28T00:23:34;100018.69;;;13.41;59.80
2339;BME280;1180;51.438;6.978;2023-04-28T00:26:00;100015.19;;;13.31;61.96
2339;BME280;1180;51.438;6.978;2023-04-28T00:28:25;100004.50;;;13.24;62.83
2339;BME280;1180;51.438;6.978;2023-04-28T00:30:51;100010.25;;;13.39;62.42
2339;BME280;1180;51.438;6.978;2023-04-28T00:33:16;100006.88;;;13.38;62.29
2339;BME280;1180;51.438;6.978;2023-04-28T00:35:42;99999.25;;;13.37;63.85
2339;BME280;1180;51.438;6.978;2023-04-28T00:38:07;99999.38;;;13.35;63.37
2339;BME280;1180;51.438;6.978;2023-04-28T00:42:58;99989.31;;;13.32;63.77
2339;BME280;1180;51.438;6.978;2023-04-28T00:45:24;99984.16;;;13.32;63.05
2339;BME280;1180;51.438;6.978;2023-04-28T00:47:49;99980.16;;;13.28;64.07
2339;BME280;1180;51.438;6.978;2023-04-28T00:50:15;99990.13;;;13.33;65.95
2339;BME280;1180;51.438;6.978;2023-04-28T00:52:41;99990.72;;;13.36;66.05
2339;BME280;1180;51.438;6.978;2023-04-28T00:55:08;99987.66;;;13.31;66.91
2339;BME280;1180;51.438;6.978;2023-04-28T00:57:34;99977.94;;;13.23;67.85
2339;BME280;1180;51.438;6.978;2023-04-28T01:00:00;99975.94;;;13.27;67.91
2339;BME280;1180;51.438;6.978;2023-04-28T01:02:26;99981.06;;;13.15;68.52
2339;BME280;1180;51.438;6.978;2023-04-28T01:04:55;99986.22;;;13.15;70.44
2339;BME280;1180;51.438;6.978;2023-04-28T01:07:20;99979.56;;;13.13;70.29
2339;BME280;1180;51.438;6.978;2023-04-28T01:09:46;99978.34;;;13.06;69.30
2339;BME280;1180;51.438;6.978;2023-04-28T01:12:12;99974.13;;;13.05;71.00
2339;BME280;1180;51.438;6.978;2023-04-28T01:14:37;99977.53;;;13.05;72.52
2339;BME280;1180;51.438;6.978;2023-04-28T01:17:04;99970.97;;;13.01;73.79
2339;BME280;1180;51.438;6.978;2023-04-28T01:19:29;99973.78;;;12.98;75.27
2339;BME280;1180;51.438;6.978;2023-04-28T01:21:55;99975.16;;;12.91;75.82
2339;BME280;1180;51.438;6.978;2023-04-28T01:24:21;99973.16;;;12.83;76.68
2339;BME280;1180;51.438;6.978;2023-04-28T01:26:46;99975.91;;;12.68;78.09
2339;BME280;1180;51.438;6.978;2023-04-28T01:29:12;99965.97;;;12.64;79.09
2339;BME280;1180;51.438;6.978;2023-04-28T01:31:37;99967.81;;;12.62;80.55
2339;BME280;1180;51.438;6.978;2023-04-28T01:34:03;99960.09;;;12.62;80.38
2339;BME280;1180;51.438;6.978;2023-04-28T01:36:29;99958.66;;;12.57;79.17
2339;BME280;1180;51.438;6.978;2023-04-28T01:38:54;99969.47;;;12.63;78.57
2339;BME280;1180;51.438;6.978;2023-04-28T01:41:20;99958.72;;;12.69;79.35
2339;BME280;1180;51.438;6.978;2023-04-28T01:43:46;99957.72;;;12.59;79.04
2339;BME280;1180;51.438;6.978;2023-04-28T01:46:12;99953.88;;;12.64;78.65
2339;BME280;1180;51.438;6.978;2023-04-28T01:48:37;99954.94;;;12.62;79.55
2339;BME280;1180;51.438;6.978;2023-04-28T01:51:03;99953.63;;;12.56;79.73
2339;BME280;1180;51.438;6.978;2023-04-28T01:53:29;99958.78;;;12.56;80.97
2339;BME280;1180;51.438;6.978;2023-04-28T01:55:55;99966.34;;;12.46;82.29
2339;BME280;1180;51.438;6.978;2023-04-28T01:58:20;99970.28;;;12.39;83.29
2339;BME280;1180;51.438;6.978;2023-04-28T02:00:46;99954.47;;;12.32;85.34
2339;BME280;1180;51.438;6.978;2023-04-28T02:03:12;99957.56;;;12.24;86.31
2339;BME280;1180;51.438;6.978;2023-04-28T02:05:37;99959.44;;;12.22;86.92
2339;BME280;1180;51.438;6.978;2023-04-28T02:08:03;99952.31;;;12.26;86.62
2339;BME280;1180;51.438;6.978;2023-04-28T02:10:28;99944.00;;;12.22;87.46
2339;BME280;1180;51.438;6.978;2023-04-28T02:12:54;99936.91;;;12.26;87.44
2339;BME280;1180;51.438;6.978;2023-04-28T02:15:19;99938.44;;;12.28;87.41
2339;BME280;1180;51.438;6.978;2023-04-28T02:17:45;99936.41;;;12.21;89.19
2339;BME280;1180;51.438;6.978;2023-04-28T02:20:11;99922.78;;;12.32;88.31
2339;BME280;1180;51.438;6.978;2023-04-28T02:22:38;99926.53;;;12.39;87.72
2339;BME280;1180;51.438;6.978;2023-04-28T02:25:04;99919.63;;;12.39;87.53
2339;BME280;1180;51.438;6.978;2023-04-28T02:27:29;99913.19;;;12.34;88.29
2339;BME280;1180;51.438;6.978;2023-04-28T02:29:55;99908.81;;;12.23;89.71
2339;BME280;1180;51.438;6.978;2023-04-28T02:32:20;99913.03;;;12.24;90.90
2339;BME280;1180;51.438;6.978;2023-04-28T02:34:46;99914.34;;;12.30;90.71
2339;BME280;1180;51.438;6.978;2023-04-28T02:37:11;99912.97;;;12.37;90.87
2339;BME280;1180;51.438;6.978;2023-04-28T02:39:37;99925.63;;;12.40;90.88
2339;BME280;1180;51.438;6.978;2023-04-28T02:42:02;99937.41;;;12.42;91.46
2339;BME280;1180;51.438;6.978;2023-04-28T02:44:29;99935.13;;;12.51;91.84
2339;BME280;1180;51.438;6.978;2023-04-28T02:46:55;99928.66;;;12.45;91.59
2339;BME280;1180;51.438;6.978;2023-04-28T02:49:21;99929.50;;;12.46;92.28
2339;BME280;1180;51.438;6.978;2023-04-28T02:51:46;99923.53;;;12.45;92.80
2339;BME280;1180;51.438;6.978;2023-04-28T02:54:11;99925.28;;;12.45;93.50
2339;BME280;1180;51.438;6.978;2023-04-28T02:56:37;99916.84;;;12.42;93.68
2339;BME280;1180;51.438;6.978;2023-04-28T02:59:05;99911.44;;;12.34;94.74
2339;BME280;1180;51.438;6.978;2023-04-28T03:01:31;99910.28;;;12.38;94.75
2339;BME280;1180;51.438;6.978;2023-04-28T03:03:56;99908.06;;;12.34;95.80
2339;BME280;1180;51.438;6.978;2023-04-28T03:06:21;99913.28;;;12.32;95.17
2339;BME280;1180;51.438;6.978;2023-04-28T03:08:47;99905.47;;;12.34;95.73
2339;BME280;1180;51.438;6.978;2023-04-28T03:11:12;99907.22;;;12.33;96.07
2339;BME280;1180;51.438;6.978;2023-04-28T03:13:37;99910.78;;;12.44;95.23
2339;BME280;1180;51.438;6.978;2023-04-28T03:16:03;99906.66;;;12.41;96.18
2339;BME280;1180;51.438;6.978;2023-04-28T03:18:30;99898.88;;;12.54;95.57
2339;BME280;1180;51.438;6.978;2023-04-28T03:20:55;99898.75;;;12.55;95.10
2339;BME280;1180;51.438;6.978;2023-04-28T03:23:21;99892.41;;;12.48;95.74
2339;BME280;1180;51.438;6.978;2023-04-28T03:25:47;99886.34;;;12.49;96.40
2339;BME280;1180;51.438;6.978;2023-04-28T03:28:12;99887.03;;;12.51;96.68
2339;BME280;1180;51.438;6.978;2023-04-28T03:30:38;99882.88;;;12.62;96.38
2339;BME280;1180;51.438;6.978;2023-04-28T03:33:03;99887.66;;;12.55;96.44
2339;BME280;1180;51.438;6.978;2023-04-28T03:35:29;99884.00;;;12.57;97.30
2339;BME280;1180;51.438;6.978;2023-04-28T03:37:55;99869.31;;;12.60;97.05
2339;BME280;1180;51.438;6.978;2023-04-28T03:40:21;99868.13;;;12.64;97.47
2339;BME280;1180;51.438;6.978;2023-04-28T03:42:46;99863.78;;;12.64;97.45
2339;BME280;1180;51.438;6.978;2023-04-28T03:45:12;99864.97;;;12.60;98.17
2339;BME280;1180;51.438;6.978;2023-04-28T03:47:37;99856.69;;;12.68;98.18
2339;BME280;1180;51.438;6.978;2023-04-28T03:50:03;99858.09;;;12.72;97.67
2339;BME280;1180;51.438;6.978;2023-04-28T03:52:29;99856.91;;;12.76;97.84
2339;BME280;1180;51.438;6.978;2023-04-28T03:54:55;99850.69;;;12.67;97.97
2339;BME280;1180;51.438;6.978;2023-04-28T03:57:20;99846.59;;;12.65;98.62
2339;BME280;1180;51.438;6.978;2023-04-28T03:59:46;99837.13;;;12.65;99.00
2339;BME280;1180;51.438;6.978;2023-04-28T04:02:11;99835.94;;;12.58;99.78
2339;BME280;1180;51.438;6.978;2023-04-28T04:04:37;99833.59;;;12.55;100.00
2339;BME280;1180;51.438;6.978;2023-04-28T04:07:03;99819.88;;;12.54;100.00
2339;BME280;1180;51.438;6.978;2023-04-28T04:09:29;99823.41;;;12.53;100.00
2339;BME280;1180;51.438;6.978;2023-04-28T04:11:54;99823.63;;;12.50;100.00
2339;BME280;1180;51.438;6.978;2023-04-28T04:14:20;99824.38;;;12.64;100.00
2339;BME280;1180;51.438;6.978;2023-04-28T04:16:46;99820.63;;;12.68;99.60
2339;BME280;1180;51.438;6.978;2023-04-28T04:19:14;99817.69;;;12.61;100.00
2339;BME280;1180;51.438;6.978;2023-04-28T04:21:40;99810.09;;;12.71;100.00
2339;BME280;1180;51.438;6.978;2023-04-28T04:24:06;99808.22;;;12.73;100.00
2339;BME280;1180;51.438;6.978;2023-04-28T04:26:32;99814.53;;;12.80;98.86
2339;BME280;1180;51.438;6.978;2023-04-28T04:28:57;99821.09;;;12.84;99.53
2339;BME280;1180;51.438;6.978;2023-04-28T04:31:23;99833.16;;;12.95;99.12
2339;BME280;1180;51.438;6.978;2023-04-28T04:33:48;99829.41;;;12.99;99.01
2339;BME280;1180;51.438;6.978;2023-04-28T04:36:14;99834.69;;;12.98;98.44
2339;BME280;1180;51.438;6.978;2023-04-28T04:38:40;99833.41;;;13.04;98.30
2339;BME280;1180;51.438;6.978;2023-04-28T04:41:05;99835.97;;;13.04;98.20
2339;BME280;1180;51.438;6.978;2023-04-28T04:43:31;99830.56;;;13.07;98.64
2339;BME280;1180;51.438;6.978;2023-04-28T04:45:56;99833.53;;;13.02;98.37
2339;BME280;1180;51.438;6.978;2023-04-28T04:48:22;99826.25;;;13.07;98.14
2339;BME280;1180;51.438;6.978;2023-04-28T04:50:47;99824.97;;;13.13;98.36
2339;BME280;1180;51.438;6.978;2023-04-28T04:53:13;99824.16;;;13.12;98.31
2339;BME280;1180;51.438;6.978;2023-04-28T04:55:39;99823.91;;;13.15;98.61
2339;BME280;1180;51.438;6.978;2023-04-28T04:58:04;99826.00;;;13.22;97.36
2339;BME280;1180;51.438;6.978;2023-04-28T05:00:29;99821.78;;;13.21;98.32
2339;BME280;1180;51.438;6.978;2023-04-28T05:02:55;99816.63;;;13.21;98.37
2339;BME280;1180;51.438;6.978;2023-04-28T05:05:20;99810.31;;;13.25;98.69
2339;BME280;1180;51.438;6.978;2023-04-28T05:07:46;99812.56;;;13.18;98.78
2339;BME280;1180;51.438;6.978;2023-04-28T05:10:11;99812.19;;;13.11;99.86
2339;BME280;1180;51.438;6.978;2023-04-28T05:12:37;99809.16;;;13.06;100.00
2339;BME280;1180;51.438;6.978;2023-04-28T05:15:04;99808.66;;;13.24;100.00
2339;BME280;1180;51.438;6.978;2023-04-28T05:17:31;99808.19;;;13.41;99.54
2339;BME280;1180;51.438;6.978;2023-04-28T05:19:56;99814.28;;;13.40;99.65
2339;BME280;1180;51.438;6.978;2023-04-28T05:22:21;99801.19;;;13.43;99.44
2339;BME280;1180;51.438;6.978;2023-04-28T05:24:47;99802.34;;;13.39;99.71
2339;BME280;1180;51.438;6.978;2023-04-28T05:27:12;99798.00;;;13.28;100.00
2339;BME280;1180;51.438;6.978;2023-04-28T05:29:38;99802.81;;;13.33;100.00
2339;BME280;1180;51.438;6.978;2023-04-28T05:32:03;99792.75;;;13.30;100.00
2339;BME280;1180;51.438;6.978;2023-04-28T05:34:29;99790.88;;;13.32;100.00
2339;BME280;1180;51.438;6.978;2023-04-28T05:36:54;99791.91;;;13.29;100.00
2339;BME280;1180;51.438;6.978;2023-04-28T05:39:20;99777.06;;;13.33;99.77
2339;BME280;1180;51.438;6.978;2023-04-28T05:41:45;99770.94;;;13.34;100.00
2339;BME280;1180;51.438;6.978;2023-04-28T05:44:11;99759.56;;;13.37;99.99
2339;BME280;1180;51.438;6.978;2023-04-28T05:46:36;99757.38;;;13.43;99.95
2339;BME280;1180;51.438;6.978;2023-04-28T05:49:02;99763.66;;;13.51;99.75
2339;BME280;1180;51.438;6.978;2023-04-28T05:51:27;99763.56;;;13.52;99.63
2339;BME280;1180;51.438;6.978;2023-04-28T05:53:53;99765.19;;;13.53;99.80
2339;BME280;1180;51.438;6.978;2023-04-28T05:56:19;99765.75;;;13.57;99.33
2339;BME280;1180;51.438;6.978;2023-04-28T05:58:45;99762.63;;;13.53;99.18
2339;BME280;1180;51.438;6.978;2023-04-28T06:01:11;99761.44;;;13.57;99.86
2339;BME280;1180;51.438;6.978;2023-04-28T06:03:37;99763.91;;;13.59;100.00
2339;BME280;1180;51.438;6.978;2023-04-28T06:06:02;99772.69;;;13.56;99.49
2339;BME280;1180;51.438;6.978;2023-04-28T06:08:28;99767.97;;;13.62;99.92
2339;BME280;1180;51.438;6.978;2023-04-28T06:10:53;99775.00;;;13.60;99.42
2339;BME280;1180;51.438;6.978;2023-04-28T06:13:19;99770.22;;;13.55;99.58
2339;BME280;1180;51.438;6.978;2023-04-28T06:15:44;99775.94;;;13.58;99.93
2339;BME280;1180;51.438;6.978;2023-04-28T06:18:10;99774.22;;;13.48;99.16
2339;BME280;1180;51.438;6.978;2023-04-28T06:20:36;99763.56;;;13.52;99.79
2339;BME280;1180;51.438;6.978;2023-04-28T06:23:01;99762.97;;;13.49;99.29
2339;BME280;1180;51.438;6.978;2023-04-28T06:25:27;99759.91;;;13.55;99.60
2339;BME280;1180;51.438;6.978;2023-04-28T06:27:53;99761.06;;;13.62;100.00
2339;BME280;1180;51.438;6.978;2023-04-28T06:30:20;99755.97;;;13.72;100.00
2339;BME280;1180;51.438;6.978;2023-04-28T06:32:46;99751.50;;;13.74;100.00
2339;BME280;1180;51.438;6.978;2023-04-28T06:35:12;99747.81;;;13.88;100.00
2339;BME280;1180;51.438;6.978;2023-04-28T06:37:37;99755.50;;;13.99;100.00
2339;BME280;1180;51.438;6.978;2023-04-28T06:40:03;99754.94;;;14.17;100.00
2339;BME280;1180;51.438;6.978;2023-04-28T06:42:29;99752.31;;;14.38;99.81
2339;BME280;1180;51.438;6.978;2023-04-28T06:44:54;99761.06;;;14.47;99.22
2339;BME280;1180;51.438;6.978;2023-04-28T06:47:20;99757.47;;;14.59;98.29
2339;BME280;1180;51.438;6.978;2023-04-28T06:49:46;99757.75;;;14.66;97.82
2339;BME280;1180;51.438;6.978;2023-04-28T06:52:14;99757.63;;;14.68;98.49
2339;BME280;1180;51.438;6.978;2023-04-28T06:54:40;99754.00;;;14.70;98.11
2339;BME280;1180;51.438;6.978;2023-04-28T06:57:05;99751.63;;;14.67;98.24
2339;BME280;1180;51.438;6.978;2023-04-28T06:59:31;99745.78;;;14.65;98.22
2339;BME280;1180;51.438;6.978;2023-04-28T07:01:56;99735.09;;;14.70;97.08
2339;BME280;1180;51.438;6.978;2023-04-28T07:04:22;99736.47;;;14.74;97.70
2339;BME280;1180;51.438;6.978;2023-04-28T07:06:48;99729.78;;;14.71;98.17
2339;BME280;1180;51.438;6.978;2023-04-28T07:09:15;99726.84;;;14.76;98.47
2339;BME280;1180;51.438;6.978;2023-04-28T07:11:41;99731.34;;;14.84;97.43
2339;BME280;1180;51.438;6.978;2023-04-28T07:14:07;99730.69;;;14.92;97.64
2339;BME280;1180;51.438;6.978;2023-04-28T07:16:32;99732.47;;;15.01;97.63
2339;BME280;1180;51.438;6.978;2023-04-28T07:18:58;99731.13;;;15.16;98.25
2339;BME280;1180;51.438;6.978;2023-04-28T07:21:23;99732.41;;;15.32;97.44
2339;BME280;1180;51.438;6.978;2023-04-28T07:23:49;99729.56;;;15.45;98.08
2339;BME280;1180;51.438;6.978;2023-04-28T07:26:15;99727.91;;;15.54;98.43
2339;BME280;1180;51.438;6.978;2023-04-28T07:28:42;99736.34;;;15.66;98.61
2339;BME280;1180;51.438;6.978;2023-04-28T07:31:08;99733.47;;;15.79;97.68
2339;BME280;1180;51.438;6.978;2023-04-28T07:33:33;99740.56;;;15.86;96.80
2339;BME280;1180;51.438;6.978;2023-04-28T07:35:59;99735.13;;;15.90;95.03
2339;BME280;1180;51.438;6.978;2023-04-28T07:38:24;99739.47;;;15.89;94.13
2339;BME280;1180;51.438;6.978;2023-04-28T07:40:50;99740.72;;;15.95;94.17
2339;BME280;1180;51.438;6.978;2023-04-28T07:43:15;99739.75;;;15.96;93.99
2339;BME280;1180;51.438;6.978;2023-04-28T07:45:41;99743.56;;;16.01;93.51
2339;BME280;1180;51.438;6.978;2023-04-28T07:48:09;99739.34;;;16.10;92.61
2339;BME280;1180;51.438;6.978;2023-04-28T07:50:35;99744.75;;;16.07;92.81
2339;BME280;1180;51.438;6.978;2023-04-28T07:53:00;99750.66;;;16.09;92.78
2339;BME280;1180;51.438;6.978;2023-04-28T07:55:26;99747.34;;;16.17;92.59
2339;BME280;1180;51.438;6.978;2023-04-28T07:57:51;99748.69;;;16.21;92.08
2339;BME280;1180;51.438;6.978;2023-04-28T08:00:16;99753.72;;;16.23;92.19
2339;BME280;1180;51.438;6.978;2023-04-28T08:02:43;99749.09;;;16.26;91.53
2339;BME280;1180;51.438;6.978;2023-04-28T08:05:08;99754.13;;;16.28;90.70
2339;BME280;1180;51.438;6.978;2023-04-28T08:07:34;99752.09;;;16.31;91.58
2339;BME280;1180;51.438;6.978;2023-04-28T08:10:01;99756.81;;;16.36;91.95
2339;BME280;1180;51.438;6.978;2023-04-28T08:12:27;99747.28;;;16.37;91.62
2339;BME280;1180;51.438;6.978;2023-04-28T08:14:52;99749.31;;;16.43;91.83
2339;BME280;1180;51.438;6.978;2023-04-28T08:17:18;99750.16;;;16.43;90.72
2339;BME280;1180;51.438;6.978;2023-04-28T08:19:43;99744.97;;;16.43;88.77
2339;BME280;1180;51.438;6.978;2023-04-28T08:22:11;99751.91;;;16.43;89.54
2339;BME280;1180;51.438;6.978;2023-04-28T08:24:36;99760.63;;;16.42;89.13
2339;BME280;1180;51.438;6.978;2023-04-28T08:27:02;99749.59;;;16.40;89.22
2339;BME280;1180;51.438;6.978;2023-04-28T08:29:28;99742.41;;;16.34;89.53
2339;BME280;1180;51.438;6.978;2023-04-28T08:31:55;99735.13;;;16.47;91.21
2339;BME280;1180;51.438;6.978;2023-04-28T08:34:20;99743.63;;;16.67;91.01
2339;BME280;1180;51.438;6.978;2023-04-28T08:36:46;99741.91;;;16.86;90.19
2339;BME280;1180;51.438;6.978;2023-04-28T08:39:11;99742.28;;;17.01;88.49
2339;BME280;1180;51.438;6.978;2023-04-28T08:41:37;99738.84;;;17.00;88.15
2339;BME280;1180;51.438;6.978;2023-04-28T08:44:09;99740.06;;;17.06;88.34
2339;BME280;1180;51.438;6.978;2023-04-28T08:46:39;99737.16;;;17.09;88.16
2339;BME280;1180;51.438;6.978;2023-04-28T08:49:06;99741.47;;;17.18;88.02
2339;BME280;1180;51.438;6.978;2023-04-28T08:51:45;99741.34;;;17.20;87.25
2339;BME280;1180;51.438;6.978;2023-04-28T08:54:14;99731.44;;;17.06;87.64
2339;BME280;1180;51.438;6.978;2023-04-28T08:56:41;99740.78;;;17.16;87.11
2339;BME280;1180;51.438;6.978;2023-04-28T08:59:10;99735.97;;;17.22;86.02
2339;BME280;1180;51.438;6.978;2023-04-28T09:01:36;99731.09;;;17.18;86.54
2339;BME280;1180;51.438;6.978;2023-04-28T09:04:02;99733.56;;;17.20;85.89
2339;BME280;1180;51.438;6.978;2023-04-28T09:06:35;99738.88;;;17.18;86.77
2339;BME280;1180;51.438;6.978;2023-04-28T09:09:20;99739.47;;;17.12;86.90
2339;BME280;1180;51.438;6.978;2023-04-28T09:12:06;99743.19;;;17.10;87.37
2339;BME280;1180;51.438;6.978;2023-04-28T09:14:33;99737.69;;;17.13;87.31
2339;BME280;1180;51.438;6.978;2023-04-28T09:17:00;99738.56;;;17.22;86.89
2339;BME280;1180;51.438;6.978;2023-04-28T09:19:36;99735.41;;;17.28;87.37
2339;BME280;1180;51.438;6.978;2023-04-28T09:22:02;99736.88;;;17.30;87.91
2339;BME280;1180;51.438;6.978;2023-04-28T09:24:36;99735.84;;;17.23;88.76
2339;BME280;1180;51.438;6.978;2023-04-28T09:27:05;99735.63;;;17.35;89.06
2339;BME280;1180;51.438;6.978;2023-04-28T09:29:36;99725.34;;;17.43;89.35
2339;BME280;1180;51.438;6.978;2023-04-28T09:32:17;99732.53;;;17.49;88.99
2339;BME280;1180;51.438;6.978;2023-04-28T09:34:45;99735.63;;;17.53;89.55
2339;BME280;1180;51.438;6.978;2023-04-28T09:37:17;99739.34;;;17.50;89.94
2339;BME280;1180;51.438;6.978;2023-04-28T09:39:45;99746.47;;;17.48;89.99
2339;BME280;1180;51.438;6.978;2023-04-28T09:42:37;99741.03;;;17.41;91.61
2339;BME280;1180;51.438;6.978;2023-04-28T09:45:05;99726.81;;;17.45;92.92
2339;BME280;1180;51.438;6.978;2023-04-28T09:47:33;99732.00;;;17.45;92.23
2339;BME280;1180;51.438;6.978;2023-04-28T09:50:01;99726.88;;;17.54;92.52
2339;BME280;1180;51.438;6.978;2023-04-28T09:52:27;99721.00;;;17.70;92.33
2339;BME280;1180;51.438;6.978;2023-04-28T09:54:53;99718.09;;;17.91;91.47
2339;BME280;1180;51.438;6.978;2023-04-28T09:57:20;99719.09;;;18.16;90.14
2339;BME280;1180;51.438;6.978;2023-04-28T09:59:47;99716.47;;;18.16;89.38
2339;BME280;1180;51.438;6.978;2023-04-28T10:02:14;99718.81;;;18.28;88.20
2339;BME280;1180;51.438;6.978;2023-04-28T10:04:44;99720.19;;;18.40;87.89
2339;BME280;1180;51.438;6.978;2023-04-28T10:07:18;99717.28;;;18.43;87.45
2339;BME280;1180;51.438;6.978;2023-04-28T10:09:51;99723.59;;;18.41;87.32
2339;BME280;1180;51.438;6.978;2023-04-28T10:12:19;99721.63;;;18.43;87.76
2339;BME280;1180;51.438;6.978;2023-04-28T10:14:46;99724.25;;;18.43;87.54
2339;BME280;1180;51.438;6.978;2023-04-28T10:17:14;99717.44;;;18.50;87.36
2339;BME280;1180;51.438;6.978;2023-04-28T10:19:40;99720.03;;;18.50;86.06
2339;BME280;1180;51.438;6.978;2023-04-28T10:24:49;99706.38;;;18.40;87.31
2339;BME280;1180;51.438;6.978;2023-04-28T10:27:18;99713.19;;;18.41;86.54
2339;BME280;1180;51.438;6.978;2023-04-28T10:29:43;99714.47;;;18.37;86.28
2339;BME280;1180;51.438;6.978;2023-04-28T10:32:19;99710.53;;;18.24;88.10
2339;BME280;1180;51.438;6.978;2023-04-28T10:34:45;99722.03;;;18.22;88.21
2339;BME280;1180;51.438;6.978;2023-04-28T10:37:11;99717.47;;;18.15;88.45
2339;BME280;1180;51.438;6.978;2023-04-28T10:39:39;99719.09;;;17.98;89.93
2339;BME280;1180;51.438;6.978;2023-04-28T10:45:57;99717.72;;;17.86;92.10
2339;BME280;1180;51.438;6.978;2023-04-28T10:58:40;99723.16;;;17.74;91.05
2339;BME280;1180;51.438;6.978;2023-04-28T11:08:50;99718.34;;;18.06;91.94
2339;BME280;1180;51.438;6.978;2023-04-28T11:11:20;99713.41;;;18.21;91.21
2339;BME280;1180;51.438;6.978;2023-04-28T11:13:47;99715.56;;;18.26;90.97
2339;BME280;1180;51.438;6.978;2023-04-28T11:16:20;99712.25;;;18.15;93.15
2339;BME280;1180;51.438;6.978;2023-04-28T11:21:19;99712.41;;;18.40;93.31
2339;BME280;1180;51.438;6.978;2023-04-28T11:23:46;99713.47;;;18.29;93.44
2339;BME280;1180;51.438;6.978;2023-04-28T11:26:12;99711.63;;;18.22;93.22
2339;BME280;1180;51.438;6.978;2023-04-28T11:28:52;99707.09;;;18.24;93.04
2339;BME280;1180;51.438;6.978;2023-04-28T11:31:18;99715.41;;;18.27;93.55
2339;BME280;1180;51.438;6.978;2023-04-28T11:33:52;99709.38;;;18.27;93.90
2339;BME280;1180;51.438;6.978;2023-04-28T11:36:25;99715.09;;;18.30;92.74
2339;BME280;1180;51.438;6.978;2023-04-28T11:38:51;99717.69;;;18.30;92.63
2339;BME280;1180;51.438;6.978;2023-04-28T11:41:24;99715.59;;;18.34;92.17
2339;BME280;1180;51.438;6.978;2023-04-28T11:43:53;99722.22;;;18.28;93.14
2339;BME280;1180;51.438;6.978;2023-04-28T11:46:21;99715.41;;;18.27;93.14
2339;BME280;1180;51.438;6.978;2023-04-28T11:48:48;99720.97;;;18.41;93.03
2339;BME280;1180;51.438;6.978;2023-04-28T11:51:36;99724.91;;;18.45;92.72
2339;BME280;1180;51.438;6.978;2023-04-28T11:54:05;99720.03;;;18.50;93.31
2339;BME280;1180;51.438;6.978;2023-04-28T11:56:38;99726.94;;;18.59;94.00
2339;BME280;1180;51.438;6.978;2023-04-28T11:59:09;99721.09;;;18.66;93.83
2339;BME280;1180;51.438;6.978;2023-04-28T12:01:52;99717.09;;;18.45;95.51
2339;BME280;1180;51.438;6.978;2023-04-28T12:04:35;99719.44;;;18.56;95.49
2339;BME280;1180;51.438;6.978;2023-04-28T12:07:08;99719.63;;;18.63;96.39
2339;BME280;1180;51.438;6.978;2023-04-28T12:09:39;99725.00;;;18.70;96.55
2339;BME280;1180;51.438;6.978;2023-04-28T12:12:08;99723.69;;;18.66;95.74
2339;BME280;1180;51.438;6.978;2023-04-28T12:14:53;99722.53;;;18.68;96.24
2339;BME280;1180;51.438;6.978;2023-04-28T12:19:51;99733.03;;;18.50;96.54
2339;BME280;1180;51.438;6.978;2023-04-28T12:22:18;99730.75;;;18.47;96.04
2339;BME280;1180;51.438;6.978;2023-04-28T12:24:44;99732.34;;;18.40;96.09
2339;BME280;1180;51.438;6.978;2023-04-28T12:27:18;99731.16;;;18.34;97.19
2339;BME280;1180;51.438;6.978;2023-04-28T12:29:49;99730.69;;;18.30;97.88
2339;BME280;1180;51.438;6.978;2023-04-28T12:32:16;99731.16;;;18.34;98.64
2339;BME280;1180;51.438;6.978;2023-04-28T12:34:44;99723.63;;;18.49;99.15
2339;BME280;1180;51.438;6.978;2023-04-28T12:37:11;99719.91;;;18.52;98.27
2339;BME280;1180;51.438;6.978;2023-04-28T12:39:39;99721.53;;;18.53;97.94
2339;BME280;1180;51.438;6.978;2023-04-28T12:42:05;99721.75;;;18.68;97.64
2339;BME280;1180;51.438;6.978;2023-04-28T12:44:33;99716.91;;;18.81;96.16
2339;BME280;1180;51.438;6.978;2023-04-28T12:47:07;99710.59;;;18.84;94.98
2339;BME280;1180;51.438;6.978;2023-04-28T12:49:36;99708.00;;;18.92;95.02
2339;BME280;1180;51.438;6.978;2023-04-28T12:52:04;99706.78;;;19.21;95.35
2339;BME280;1180;51.438;6.978;2023-04-28T12:54:31;99704.34;;;19.53;91.85
2339;BME280;1180;51.438;6.978;2023-04-28T12:56:59;99711.34;;;19.69;89.28
2339;BME280;1180;51.438;6.978;2023-04-28T12:59:27;99705.81;;;19.72;88.30
2339;BME280;1180;51.438;6.978;2023-04-28T13:01:54;99709.41;;;19.62;88.54
2339;BME280;1180;51.438;6.978;2023-04-28T13:04:21;99709.06;;;19.66;87.86
2339;BME280;1180;51.438;6.978;2023-04-28T13:06:47;99716.41;;;19.70;88.24
2339;BME280;1180;51.438;6.978;2023-04-28T13:09:14;99709.22;;;19.89;88.32
2339;BME280;1180;51.438;6.978;2023-04-28T13:11:42;99701.38;;;20.14;86.72
2339;BME280;1180;51.438;6.978;2023-04-28T13:14:08;99698.72;;;20.30;84.87
2339;BME280;1180;51.438;6.978;2023-04-28T13:16:34;99702.75;;;20.41;83.64
2339;BME280;1180;51.438;6.978;2023-04-28T13:19:02;99699.69;;;20.69;80.37
2339;BME280;1180;51.438;6.978;2023-04-28T13:21:35;99690.00;;;20.86;78.27
2339;BME280;1180;51.438;6.978;2023-04-28T13:24:04;99684.13;;;20.92;77.14
2339;BME280;1180;51.438;6.978;2023-04-28T13:26:30;99682.59;;;20.98;76.53
2339;BME280;1180;51.438;6.978;2023-04-28T13:28:56;99685.63;;;21.10;75.49
2339;BME280;1180;51.438;6.978;2023-04-28T13:31:22;99680.81;;;21.22;74.88
2339;BME280;1180;51.438;6.978;2023-04-28T13:33:49;99671.13;;;21.31;76.22
2339;BME280;1180;51.438;6.978;2023-04-28T13:36:15;99662.69;;;21.44;74.47
2339;BME280;1180;51.438;6.978;2023-04-28T13:38:41;99660.75;;;21.61;74.41
2339;BME280;1180;51.438;6.978;2023-04-28T13:41:10;99656.63;;;21.67;74.96
2339;BME280;1180;51.438;6.978;2023-04-28T13:43:36;99659.34;;;21.73;73.91
2339;BME280;1180;51.438;6.978;2023-04-28T13:46:03;99648.31;;;21.63;73.36
2339;BME280;1180;51.438;6.978;2023-04-28T13:48:33;99653.22;;;21.66;73.00
2339;BME280;1180;51.438;6.978;2023-04-28T13:51:03;99655.88;;;21.58;72.98